sensor_id;sensor_type;location;lat;lon;timestamp;P1;durP1;ratioP1;P2;durP2;ratioP2
9904;SDS011;4991;43.566;27.820;2023-07-31T00:00:34;4.03;;;2.83;;
9904;SDS011;4991;43.566;27.820;2023-07-31T00:03:00;5.73;;;2.87;;
9904;SDS011;4991;43.566;27.820;2023-07-31T00:05:26;10.07;;;3.17;;
9904;SDS011;4991;43.566;27.820;2023-07-31T00:07:51;3.87;;;2.70;;
9904;SDS011;4991;43.566;27.820;2023-07-31T00:10:19;3.10;;;2.80;;
9904;SDS011;4991;43.566;27.820;2023-07-31T00:12:45;4.57;;;2.77;;
9904;SDS011;4991;43.566;27.820;2023-07-31T00:15:10;5.23;;;2.70;;
9904;SDS011;4991;43.566;27.820;2023-07-31T00:17:36;4.43;;;2.70;;
9904;SDS011;4991;43.566;27.820;2023-07-31T00:20:02;4.10;;;3.10;;
9904;SDS011;4991;43.566;27.820;2023-07-31T00:22:28;4.77;;;3.00;;
9904;SDS011;4991;43.566;27.820;2023-07-31T00:24:54;3.23;;;2.77;;
9904;SDS011;4991;43.566;27.820;2023-07-31T00:27:19;3.23;;;2.93;;
9904;SDS011;4991;43.566;27.820;2023-07-31T00:29:45;3.23;;;2.77;;
9904;SDS011;4991;43.566;27.820;2023-07-31T00:32:10;2.90;;;2.60;;
9904;SDS011;4991;43.566;27.820;2023-07-31T00:34:36;3.87;;;2.63;;
9904;SDS011;4991;43.566;27.820;2023-07-31T00:37:02;12.83;;;3.93;;
9904;SDS011;4991;43.566;27.820;2023-07-31T00:39:29;6.00;;;3.10;;
9904;SDS011;4991;43.566;27.820;2023-07-31T00:41:56;11.23;;;4.00;;
9904;SDS011;4991;43.566;27.820;2023-07-31T00:44:22;4.17;;;3.20;;
9904;SDS011;4991;43.566;27.820;2023-07-31T00:46:48;4.57;;;3.17;;
9904;SDS011;4991;43.566;27.820;2023-07-31T00:49:14;4.47;;;3.07;;
9904;SDS011;4991;43.566;27.820;2023-07-31T00:51:41;4.90;;;3.33;;
9904;SDS011;4991;43.566;27.820;2023-07-31T00:54:06;3.20;;;2.90;;
9904;SDS011;4991;43.566;27.820;2023-07-31T00:56:32;3.83;;;3.20;;
9904;SDS011;4991;43.566;27.820;2023-07-31T00:58:58;6.07;;;3.57;;
9904;SDS011;4991;43.566;27.820;2023-07-31T01:01:24;9.03;;;3.60;;
9904;SDS011;4991;43.566;27.820;2023-07-31T01:03:50;4.37;;;3.20;;
9904;SDS011;4991;43.566;27.820;2023-07-31T01:09:02;3.37;;;3.07;;
9904;SDS011;4991;43.566;27.820;2023-07-31T01:14:26;3.93;;;2.80;;
9904;SDS011;4991;43.566;27.820;2023-07-31T01:16:52;4.33;;;3.10;;
9904;SDS011;4991;43.566;27.820;2023-07-31T01:19:18;5.20;;;3.33;;
9904;SDS011;4991;43.566;27.820;2023-07-31T01:27:04;3.57;;;2.97;;
9904;SDS011;4991;43.566;27.820;2023-07-31T01:29:38;3.53;;;3.20;;
9904;SDS011;4991;43.566;27.820;2023-07-31T01:32:12;4.00;;;3.60;;
9904;SDS011;4991;43.566;27.820;2023-07-31T01:34:38;4.37;;;2.97;;
9904;SDS011;4991;43.566;27.820;2023-07-31T01:37:06;3.60;;;3.30;;
9904;SDS011;4991;43.566;27.820;2023-07-31T01:39:31;3.33;;;2.87;;
9904;SDS011;4991;43.566;27.820;2023-07-31T01:41:57;4.37;;;3.30;;
9904;SDS011;4991;43.566;27.820;2023-07-31T01:44:23;4.17;;;3.50;;
9904;SDS011;4991;43.566;27.820;2023-07-31T01:46:48;3.93;;;3.53;;
9904;SDS011;4991;43.566;27.820;2023-07-31T01:49:14;6.13;;;3.57;;
9904;SDS011;4991;43.566;27.820;2023-07-31T01:51:39;5.00;;;3.50;;
9904;SDS011;4991;43.566;27.820;2023-07-31T01:54:05;4.53;;;3.70;;
9904;SDS011;4991;43.566;27.820;2023-07-31T01:56:31;3.70;;;3.40;;
9904;SDS011;4991;43.566;27.820;2023-07-31T01:58:56;4.87;;;3.40;;
9904;SDS011;4991;43.566;27.820;2023-07-31T02:01:22;4.43;;;3.53;;
9904;SDS011;4991;43.566;27.820;2023-07-31T02:03:48;6.13;;;3.63;;
9904;SDS011;4991;43.566;27.820;2023-07-31T02:06:14;9.63;;;4.27;;
9904;SDS011;4991;43.566;27.820;2023-07-31T02:08:40;4.00;;;3.60;;
9904;SDS011;4991;43.566;27.820;2023-07-31T02:11:05;4.87;;;3.90;;
9904;SDS011;4991;43.566;27.820;2023-07-31T02:13:31;5.77;;;4.13;;
9904;SDS011;4991;43.566;27.820;2023-07-31T02:15:57;4.17;;;3.77;;
9904;SDS011;4991;43.566;27.820;2023-07-31T02:18:22;4.10;;;3.67;;
9904;SDS011;4991;43.566;27.820;2023-07-31T02:20:49;6.20;;;4.00;;
9904;SDS011;4991;43.566;27.820;2023-07-31T02:23:18;5.83;;;3.90;;
9904;SDS011;4991;43.566;27.820;2023-07-31T02:25:45;4.83;;;4.20;;
9904;SDS011;4991;43.566;27.820;2023-07-31T02:28:10;5.20;;;3.73;;
9904;SDS011;4991;43.566;27.820;2023-07-31T02:30:36;8.53;;;4.50;;
9904;SDS011;4991;43.566;27.820;2023-07-31T02:33:03;7.20;;;4.53;;
9904;SDS011;4991;43.566;27.820;2023-07-31T02:35:29;4.90;;;4.03;;
9904;SDS011;4991;43.566;27.820;2023-07-31T02:37:54;6.27;;;3.93;;
9904;SDS011;4991;43.566;27.820;2023-07-31T02:40:20;6.53;;;4.23;;
9904;SDS011;4991;43.566;27.820;2023-07-31T02:42:46;7.80;;;3.77;;
9904;SDS011;4991;43.566;27.820;2023-07-31T02:45:11;6.77;;;4.20;;
9904;SDS011;4991;43.566;27.820;2023-07-31T02:47:37;7.27;;;3.97;;
9904;SDS011;4991;43.566;27.820;2023-07-31T02:50:03;6.50;;;3.90;;
9904;SDS011;4991;43.566;27.820;2023-07-31T02:52:29;6.97;;;4.40;;
9904;SDS011;4991;43.566;27.820;2023-07-31T02:54:55;5.47;;;4.23;;
9904;SDS011;4991;43.566;27.820;2023-07-31T02:57:20;5.10;;;4.20;;
9904;SDS011;4991;43.566;27.820;2023-07-31T02:59:46;8.57;;;4.87;;
9904;SDS011;4991;43.566;27.820;2023-07-31T03:02:11;6.73;;;4.37;;
9904;SDS011;4991;43.566;27.820;2023-07-31T03:04:38;8.83;;;4.60;;
9904;SDS011;4991;43.566;27.820;2023-07-31T03:07:04;9.33;;;5.50;;
9904;SDS011;4991;43.566;27.820;2023-07-31T03:09:30;6.50;;;4.93;;
9904;SDS011;4991;43.566;27.820;2023-07-31T03:11:56;5.80;;;4.80;;
9904;SDS011;4991;43.566;27.820;2023-07-31T03:14:21;5.80;;;5.20;;
9904;SDS011;4991;43.566;27.820;2023-07-31T03:16:48;8.13;;;4.90;;
9904;SDS011;4991;43.566;27.820;2023-07-31T03:19:14;5.70;;;4.80;;
9904;SDS011;4991;43.566;27.820;2023-07-31T03:21:39;6.07;;;4.80;;
9904;SDS011;4991;43.566;27.820;2023-07-31T03:24:05;5.13;;;4.23;;
9904;SDS011;4991;43.566;27.820;2023-07-31T03:26:33;6.40;;;4.37;;
9904;SDS011;4991;43.566;27.820;2023-07-31T03:28:59;3.93;;;3.53;;
9904;SDS011;4991;43.566;27.820;2023-07-31T03:31:24;5.93;;;4.33;;
9904;SDS011;4991;43.566;27.820;2023-07-31T03:33:50;4.83;;;4.00;;
9904;SDS011;4991;43.566;27.820;2023-07-31T03:36:16;9.73;;;5.03;;
9904;SDS011;4991;43.566;27.820;2023-07-31T03:38:41;6.97;;;4.23;;
9904;SDS011;4991;43.566;27.820;2023-07-31T03:41:07;10.87;;;4.97;;
9904;SDS011;4991;43.566;27.820;2023-07-31T03:43:32;7.17;;;4.87;;
9904;SDS011;4991;43.566;27.820;2023-07-31T03:46:01;7.47;;;4.40;;
9904;SDS011;4991;43.566;27.820;2023-07-31T03:48:27;5.70;;;4.43;;
9904;SDS011;4991;43.566;27.820;2023-07-31T03:50:53;6.33;;;4.40;;
9904;SDS011;4991;43.566;27.820;2023-07-31T03:53:19;5.23;;;4.40;;
9904;SDS011;4991;43.566;27.820;2023-07-31T03:55:45;5.93;;;3.80;;
9904;SDS011;4991;43.566;27.820;2023-07-31T03:58:10;4.20;;;3.80;;
9904;SDS011;4991;43.566;27.820;2023-07-31T04:00:36;4.40;;;4.00;;
9904;SDS011;4991;43.566;27.820;2023-07-31T04:03:01;4.43;;;3.77;;
9904;SDS011;4991;43.566;27.820;2023-07-31T04:05:29;5.03;;;3.93;;
9904;SDS011;4991;43.566;27.820;2023-07-31T04:07:55;4.70;;;4.10;;
9904;SDS011;4991;43.566;27.820;2023-07-31T04:10:21;11.20;;;4.10;;
9904;SDS011;4991;43.566;27.820;2023-07-31T04:12:46;6.27;;;3.90;;
9904;SDS011;4991;43.566;27.820;2023-07-31T04:15:12;5.53;;;3.80;;
9904;SDS011;4991;43.566;27.820;2023-07-31T04:17:37;4.63;;;3.90;;
9904;SDS011;4991;43.566;27.820;2023-07-31T04:20:03;4.77;;;4.10;;
9904;SDS011;4991;43.566;27.820;2023-07-31T04:22:29;4.40;;;4.00;;
9904;SDS011;4991;43.566;27.820;2023-07-31T04:24:54;4.43;;;4.03;;
9904;SDS011;4991;43.566;27.820;2023-07-31T04:27:20;5.23;;;3.83;;
9904;SDS011;4991;43.566;27.820;2023-07-31T04:29:46;6.43;;;4.20;;
9904;SDS011;4991;43.566;27.820;2023-07-31T04:32:12;6.50;;;3.80;;
9904;SDS011;4991;43.566;27.820;2023-07-31T04:34:38;6.27;;;4.20;;
9904;SDS011;4991;43.566;27.820;2023-07-31T04:37:04;4.97;;;4.23;;
9904;SDS011;4991;43.566;27.820;2023-07-31T04:39:29;8.20;;;4.50;;
9904;SDS011;4991;43.566;27.820;2023-07-31T04:41:55;7.37;;;4.40;;
9904;SDS011;4991;43.566;27.820;2023-07-31T04:44:21;9.30;;;4.27;;
9904;SDS011;4991;43.566;27.820;2023-07-31T04:46:46;6.67;;;4.10;;
9904;SDS011;4991;43.566;27.820;2023-07-31T04:49:12;5.53;;;4.90;;
9904;SDS011;4991;43.566;27.820;2023-07-31T04:51:38;5.10;;;4.37;;
9904;SDS011;4991;43.566;27.820;2023-07-31T04:54:04;5.00;;;4.27;;
9904;SDS011;4991;43.566;27.820;2023-07-31T04:56:30;4.67;;;4.13;;
9904;SDS011;4991;43.566;27.820;2023-07-31T04:58:55;7.73;;;4.73;;
9904;SDS011;4991;43.566;27.820;2023-07-31T05:01:21;5.87;;;4.97;;
9904;SDS011;4991;43.566;27.820;2023-07-31T05:03:47;5.20;;;4.70;;
9904;SDS011;4991;43.566;27.820;2023-07-31T05:06:12;7.33;;;4.70;;
9904;SDS011;4991;43.566;27.820;2023-07-31T05:08:40;5.10;;;4.60;;
9904;SDS011;4991;43.566;27.820;2023-07-31T05:11:06;6.90;;;5.10;;
9904;SDS011;4991;43.566;27.820;2023-07-31T05:13:31;5.50;;;5.00;;
9904;SDS011;4991;43.566;27.820;2023-07-31T05:15:57;5.57;;;4.87;;
9904;SDS011;4991;43.566;27.820;2023-07-31T05:18:23;5.80;;;5.10;;
9904;SDS011;4991;43.566;27.820;2023-07-31T05:20:48;5.77;;;4.90;;
9904;SDS011;4991;43.566;27.820;2023-07-31T05:23:14;5.63;;;5.03;;
9904;SDS011;4991;43.566;27.820;2023-07-31T05:25:39;6.70;;;5.27;;
9904;SDS011;4991;43.566;27.820;2023-07-31T05:28:05;5.73;;;5.23;;
9904;SDS011;4991;43.566;27.820;2023-07-31T05:30:31;6.67;;;5.37;;
9904;SDS011;4991;43.566;27.820;2023-07-31T05:32:56;5.67;;;4.93;;
9904;SDS011;4991;43.566;27.820;2023-07-31T05:35:22;5.17;;;4.77;;
9904;SDS011;4991;43.566;27.820;2023-07-31T05:37:48;6.57;;;5.23;;
9904;SDS011;4991;43.566;27.820;2023-07-31T05:40:13;5.10;;;4.60;;
9904;SDS011;4991;43.566;27.820;2023-07-31T05:42:39;5.33;;;4.83;;
9904;SDS011;4991;43.566;27.820;2023-07-31T05:45:06;4.60;;;4.20;;
9904;SDS011;4991;43.566;27.820;2023-07-31T05:47:32;5.20;;;4.70;;
9904;SDS011;4991;43.566;27.820;2023-07-31T05:49:58;6.30;;;4.77;;
9904;SDS011;4991;43.566;27.820;2023-07-31T05:52:24;6.00;;;4.67;;
9904;SDS011;4991;43.566;27.820;2023-07-31T05:54:50;5.97;;;4.85;;
9904;SDS011;4991;43.566;27.820;2023-07-31T05:57:15;4.90;;;4.40;;
9904;SDS011;4991;43.566;27.820;2023-07-31T05:59:41;5.05;;;4.55;;
9904;SDS011;4991;43.566;27.820;2023-07-31T06:02:07;5.10;;;4.70;;
9904;SDS011;4991;43.566;27.820;2023-07-31T06:04:32;4.27;;;3.87;;
9904;SDS011;4991;43.566;27.820;2023-07-31T06:06:58;4.35;;;3.95;;
9904;SDS011;4991;43.566;27.820;2023-07-31T06:09:24;5.25;;;4.38;;
9904;SDS011;4991;43.566;27.820;2023-07-31T06:11:50;4.20;;;3.80;;
9904;SDS011;4991;43.566;27.820;2023-07-31T06:14:16;4.80;;;4.40;;
9904;SDS011;4991;43.566;27.820;2023-07-31T06:16:42;5.50;;;3.92;;
9904;SDS011;4991;43.566;27.820;2023-07-31T06:19:09;4.40;;;3.55;;
9904;SDS011;4991;43.566;27.820;2023-07-31T06:21:34;5.82;;;3.92;;
9904;SDS011;4991;43.566;27.820;2023-07-31T06:24:03;4.57;;;3.72;;
9904;SDS011;4991;43.566;27.820;2023-07-31T06:26:29;4.32;;;3.80;;
9904;SDS011;4991;43.566;27.820;2023-07-31T06:28:54;3.50;;;3.10;;
9904;SDS011;4991;43.566;27.820;2023-07-31T06:31:20;3.47;;;2.95;;
9904;SDS011;4991;43.566;27.820;2023-07-31T06:33:51;2.97;;;2.67;;
9904;SDS011;4991;43.566;27.820;2023-07-31T06:36:17;3.30;;;2.92;;
9904;SDS011;4991;43.566;27.820;2023-07-31T06:38:43;5.63;;;3.05;;
9904;SDS011;4991;43.566;27.820;2023-07-31T06:41:08;4.90;;;2.70;;
9904;SDS011;4991;43.566;27.820;2023-07-31T06:43:35;3.17;;;2.00;;
9904;SDS011;4991;43.566;27.820;2023-07-31T06:46:07;3.13;;;2.50;;
9904;SDS011;4991;43.566;27.820;2023-07-31T06:48:34;2.13;;;1.92;;
9904;SDS011;4991;43.566;27.820;2023-07-31T06:51:03;2.90;;;2.63;;
9904;SDS011;4991;43.566;27.820;2023-07-31T06:53:28;2.35;;;2.13;;
9904;SDS011;4991;43.566;27.820;2023-07-31T06:55:54;2.35;;;2.15;;
9904;SDS011;4991;43.566;27.820;2023-07-31T06:58:19;2.85;;;2.58;;
9904;SDS011;4991;43.566;27.820;2023-07-31T07:00:46;4.68;;;2.08;;
9904;SDS011;4991;43.566;27.820;2023-07-31T07:03:11;2.28;;;2.08;;
9904;SDS011;4991;43.566;27.820;2023-07-31T07:05:39;2.80;;;2.03;;
9904;SDS011;4991;43.566;27.820;2023-07-31T07:08:05;2.28;;;2.08;;
9904;SDS011;4991;43.566;27.820;2023-07-31T07:10:31;2.42;;;2.22;;
9904;SDS011;4991;43.566;27.820;2023-07-31T07:12:56;2.40;;;2.20;;
9904;SDS011;4991;43.566;27.820;2023-07-31T07:15:22;2.20;;;2.00;;
9904;SDS011;4991;43.566;27.820;2023-07-31T07:17:47;2.85;;;2.35;;
9904;SDS011;4991;43.566;27.820;2023-07-31T07:20:13;2.72;;;2.38;;
9904;SDS011;4991;43.566;27.820;2023-07-31T07:22:39;2.58;;;2.30;;
9904;SDS011;4991;43.566;27.820;2023-07-31T07:25:04;3.45;;;2.47;;
9904;SDS011;4991;43.566;27.820;2023-07-31T07:27:32;2.50;;;2.30;;
9904;SDS011;4991;43.566;27.820;2023-07-31T07:29:58;3.85;;;2.47;;
9904;SDS011;4991;43.566;27.820;2023-07-31T07:32:24;2.60;;;2.40;;
9904;SDS011;4991;43.566;27.820;2023-07-31T07:34:50;2.63;;;2.42;;
9904;SDS011;4991;43.566;27.820;2023-07-31T07:37:16;2.92;;;2.70;;
9904;SDS011;4991;43.566;27.820;2023-07-31T07:39:41;2.67;;;2.47;;
9904;SDS011;4991;43.566;27.820;2023-07-31T07:42:07;3.17;;;2.50;;
9904;SDS011;4991;43.566;27.820;2023-07-31T07:44:33;2.90;;;2.65;;
9904;SDS011;4991;43.566;27.820;2023-07-31T07:46:58;3.00;;;2.70;;
9904;SDS011;4991;43.566;27.820;2023-07-31T07:49:24;2.70;;;2.50;;
9904;SDS011;4991;43.566;27.820;2023-07-31T07:51:49;3.20;;;2.90;;
9904;SDS011;4991;43.566;27.820;2023-07-31T07:54:15;3.10;;;2.83;;
9904;SDS011;4991;43.566;27.820;2023-07-31T07:56:42;3.05;;;2.75;;
9904;SDS011;4991;43.566;27.820;2023-07-31T07:59:08;3.10;;;2.80;;
9904;SDS011;4991;43.566;27.820;2023-07-31T08:01:33;3.53;;;3.05;;
9904;SDS011;4991;43.566;27.820;2023-07-31T08:04:00;3.08;;;2.88;;
9904;SDS011;4991;43.566;27.820;2023-07-31T08:06:26;3.35;;;3.05;;
9904;SDS011;4991;43.566;27.820;2023-07-31T08:08:51;2.80;;;2.60;;
9904;SDS011;4991;43.566;27.820;2023-07-31T08:11:17;3.40;;;2.80;;
9904;SDS011;4991;43.566;27.820;2023-07-31T08:13:42;3.03;;;2.80;;
9904;SDS011;4991;43.566;27.820;2023-07-31T08:16:08;3.35;;;3.05;;
9904;SDS011;4991;43.566;27.820;2023-07-31T08:18:35;2.95;;;2.72;;
9904;SDS011;4991;43.566;27.820;2023-07-31T08:21:03;3.95;;;2.67;;
9904;SDS011;4991;43.566;27.820;2023-07-31T08:23:29;3.20;;;2.90;;
9904;SDS011;4991;43.566;27.820;2023-07-31T08:25:54;3.42;;;2.80;;
9904;SDS011;4991;43.566;27.820;2023-07-31T08:28:20;4.57;;;2.65;;
9904;SDS011;4991;43.566;27.820;2023-07-31T08:30:46;3.20;;;2.90;;
9904;SDS011;4991;43.566;27.820;2023-07-31T08:33:11;2.70;;;2.50;;
9904;SDS011;4991;43.566;27.820;2023-07-31T08:35:37;2.78;;;2.58;;
9904;SDS011;4991;43.566;27.820;2023-07-31T08:38:03;3.40;;;2.70;;
9904;SDS011;4991;43.566;27.820;2023-07-31T08:40:28;3.50;;;3.20;;
9904;SDS011;4991;43.566;27.820;2023-07-31T08:42:55;3.22;;;2.92;;
9904;SDS011;4991;43.566;27.820;2023-07-31T08:45:27;3.67;;;3.30;;
9904;SDS011;4991;43.566;27.820;2023-07-31T08:47:53;3.20;;;2.95;;
9904;SDS011;4991;43.566;27.820;2023-07-31T08:50:19;3.03;;;2.80;;
9904;SDS011;4991;43.566;27.820;2023-07-31T08:52:47;3.53;;;2.80;;
9904;SDS011;4991;43.566;27.820;2023-07-31T08:55:14;3.33;;;3.03;;
9904;SDS011;4991;43.566;27.820;2023-07-31T08:57:39;3.88;;;3.53;;
9904;SDS011;4991;43.566;27.820;2023-07-31T09:00:07;3.08;;;2.85;;
9904;SDS011;4991;43.566;27.820;2023-07-31T09:02:36;4.15;;;2.70;;
9904;SDS011;4991;43.566;27.820;2023-07-31T09:05:06;3.42;;;3.10;;
9904;SDS011;4991;43.566;27.820;2023-07-31T09:07:35;3.90;;;2.88;;
9904;SDS011;4991;43.566;27.820;2023-07-31T09:10:03;3.58;;;3.28;;
9904;SDS011;4991;43.566;27.820;2023-07-31T09:12:29;3.65;;;2.88;;
9904;SDS011;4991;43.566;27.820;2023-07-31T09:14:55;3.33;;;3.03;;
9904;SDS011;4991;43.566;27.820;2023-07-31T09:17:30;3.28;;;2.97;;
9904;SDS011;4991;43.566;27.820;2023-07-31T09:19:57;3.38;;;3.08;;
9904;SDS011;4991;43.566;27.820;2023-07-31T09:22:32;2.92;;;2.67;;
9904;SDS011;4991;43.566;27.820;2023-07-31T09:27:58;3.50;;;3.00;;
9904;SDS011;4991;43.566;27.820;2023-07-31T09:30:26;3.00;;;2.70;;
9904;SDS011;4991;43.566;27.820;2023-07-31T09:33:00;10.70;;;3.30;;
9904;SDS011;4991;43.566;27.820;2023-07-31T09:35:33;3.40;;;3.00;;
9904;SDS011;4991;43.566;27.820;2023-07-31T09:38:03;3.70;;;3.10;;
9904;SDS011;4991;43.566;27.820;2023-07-31T09:40:31;4.35;;;2.97;;
9904;SDS011;4991;43.566;27.820;2023-07-31T09:42:59;3.65;;;3.15;;
9904;SDS011;4991;43.566;27.820;2023-07-31T09:45:26;3.97;;;2.83;;
9904;SDS011;4991;43.566;27.820;2023-07-31T09:47:53;3.72;;;3.42;;
9904;SDS011;4991;43.566;27.820;2023-07-31T09:50:23;3.25;;;3.05;;
9904;SDS011;4991;43.566;27.820;2023-07-31T09:52:50;3.95;;;3.60;;
9904;SDS011;4991;43.566;27.820;2023-07-31T09:55:17;3.70;;;3.40;;
9904;SDS011;4991;43.566;27.820;2023-07-31T09:57:47;3.90;;;3.58;;
9904;SDS011;4991;43.566;27.820;2023-07-31T10:00:15;3.78;;;3.38;;
9904;SDS011;4991;43.566;27.820;2023-07-31T10:02:44;3.65;;;3.35;;
9904;SDS011;4991;43.566;27.820;2023-07-31T10:05:12;3.60;;;3.30;;
9904;SDS011;4991;43.566;27.820;2023-07-31T10:07:53;3.38;;;3.08;;
9904;SDS011;4991;43.566;27.820;2023-07-31T10:10:21;3.60;;;3.30;;
9904;SDS011;4991;43.566;27.820;2023-07-31T10:12:48;3.38;;;3.08;;
9904;SDS011;4991;43.566;27.820;2023-07-31T10:15:15;3.58;;;3.28;;
9904;SDS011;4991;43.566;27.820;2023-07-31T10:17:41;3.47;;;3.17;;
9904;SDS011;4991;43.566;27.820;2023-07-31T10:20:08;4.63;;;3.03;;
9904;SDS011;4991;43.566;27.820;2023-07-31T10:22:34;3.67;;;3.38;;
9904;SDS011;4991;43.566;27.820;2023-07-31T10:25:00;4.68;;;3.05;;
9904;SDS011;4991;43.566;27.820;2023-07-31T10:27:27;2.97;;;2.78;;
9904;SDS011;4991;43.566;27.820;2023-07-31T10:29:54;3.97;;;3.08;;
9904;SDS011;4991;43.566;27.820;2023-07-31T10:32:21;3.45;;;3.15;;
9904;SDS011;4991;43.566;27.820;2023-07-31T10:34:49;4.57;;;3.17;;
9904;SDS011;4991;43.566;27.820;2023-07-31T10:37:58;3.53;;;3.22;;
9904;SDS011;4991;43.566;27.820;2023-07-31T10:42:44;3.05;;;2.83;;
9904;SDS011;4991;43.566;27.820;2023-07-31T10:45:51;3.53;;;3.22;;
9904;SDS011;4991;43.566;27.820;2023-07-31T10:48:13;3.15;;;2.95;;
9904;SDS011;4991;43.566;27.820;2023-07-31T10:50:50;4.38;;;3.70;;
9904;SDS011;4991;43.566;27.820;2023-07-31T10:53:24;3.67;;;3.38;;
9904;SDS011;4991;43.566;27.820;2023-07-31T10:55:59;3.22;;;2.92;;
9904;SDS011;4991;43.566;27.820;2023-07-31T10:58:26;3.33;;;3.13;;
9904;SDS011;4991;43.566;27.820;2023-07-31T11:00:55;3.15;;;2.85;;
9904;SDS011;4991;43.566;27.820;2023-07-31T11:03:26;3.10;;;2.80;;
9904;SDS011;4991;43.566;27.820;2023-07-31T11:06:06;3.50;;;3.20;;
9904;SDS011;4991;43.566;27.820;2023-07-31T11:08:32;3.42;;;3.13;;
9904;SDS011;4991;43.566;27.820;2023-07-31T11:13:30;3.35;;;3.05;;
9904;SDS011;4991;43.566;27.820;2023-07-31T11:16:05;3.75;;;2.97;;
9904;SDS011;4991;43.566;27.820;2023-07-31T11:18:31;4.15;;;3.38;;
9904;SDS011;4991;43.566;27.820;2023-07-31T11:20:57;3.60;;;3.30;;
9904;SDS011;4991;43.566;27.820;2023-07-31T11:23:22;3.30;;;3.00;;
9904;SDS011;4991;43.566;27.820;2023-07-31T11:25:49;3.15;;;2.85;;
9904;SDS011;4991;43.566;27.820;2023-07-31T11:28:17;3.70;;;3.40;;
9904;SDS011;4991;43.566;27.820;2023-07-31T11:30:44;4.10;;;3.70;;
9904;SDS011;4991;43.566;27.820;2023-07-31T11:33:12;4.65;;;3.47;;
9904;SDS011;4991;43.566;27.820;2023-07-31T11:35:43;3.92;;;3.63;;
9904;SDS011;4991;43.566;27.820;2023-07-31T11:38:32;4.75;;;3.75;;
9904;SDS011;4991;43.566;27.820;2023-07-31T11:40:59;4.10;;;3.80;;
9904;SDS011;4991;43.566;27.820;2023-07-31T11:43:30;4.03;;;3.72;;
9904;SDS011;4991;43.566;27.820;2023-07-31T11:45:57;4.78;;;4.38;;
9904;SDS011;4991;43.566;27.820;2023-07-31T11:48:28;4.53;;;4.13;;
9904;SDS011;4991;43.566;27.820;2023-07-31T11:50:59;4.95;;;4.50;;
9904;SDS011;4991;43.566;27.820;2023-07-31T11:56:09;7.47;;;5.35;;
9904;SDS011;4991;43.566;27.820;2023-07-31T11:58:38;5.63;;;4.47;;
9904;SDS011;4991;43.566;27.820;2023-07-31T12:01:05;5.30;;;4.80;;
9904;SDS011;4991;43.566;27.820;2023-07-31T12:03:31;5.15;;;4.72;;
9904;SDS011;4991;43.566;27.820;2023-07-31T12:05:58;5.32;;;4.82;;
9904;SDS011;4991;43.566;27.820;2023-07-31T12:08:24;5.35;;;4.90;;
9904;SDS011;4991;43.566;27.820;2023-07-31T12:10:51;6.13;;;5.53;;
9904;SDS011;4991;43.566;27.820;2023-07-31T12:13:21;8.45;;;5.30;;
9904;SDS011;4991;43.566;27.820;2023-07-31T12:15:48;5.20;;;4.80;;
9904;SDS011;4991;43.566;27.820;2023-07-31T12:18:15;5.38;;;4.88;;
9904;SDS011;4991;43.566;27.820;2023-07-31T12:20:45;5.53;;;5.03;;
9904;SDS011;4991;43.566;27.820;2023-07-31T12:26:10;5.88;;;5.38;;
9904;SDS011;4991;43.566;27.820;2023-07-31T12:28:43;7.20;;;6.40;;
9904;SDS011;4991;43.566;27.820;2023-07-31T12:31:10;6.82;;;6.20;;
9904;SDS011;4991;43.566;27.820;2023-07-31T12:33:47;6.03;;;5.53;;
9904;SDS011;4991;43.566;27.820;2023-07-31T12:36:16;6.28;;;5.78;;
9904;SDS011;4991;43.566;27.820;2023-07-31T12:38:45;6.38;;;5.80;;
9904;SDS011;4991;43.566;27.820;2023-07-31T12:41:11;6.72;;;6.13;;
9904;SDS011;4991;43.566;27.820;2023-07-31T12:43:38;6.83;;;6.23;;
9904;SDS011;4991;43.566;27.820;2023-07-31T12:46:05;5.90;;;5.47;;
9904;SDS011;4991;43.566;27.820;2023-07-31T12:48:31;6.40;;;5.80;;
9904;SDS011;4991;43.566;27.820;2023-07-31T12:50:57;5.75;;;5.25;;
9904;SDS011;4991;43.566;27.820;2023-07-31T12:53:23;6.65;;;5.97;;
9904;SDS011;4991;43.566;27.820;2023-07-31T12:55:48;7.60;;;6.93;;
9904;SDS011;4991;43.566;27.820;2023-07-31T12:58:15;8.02;;;6.47;;
9904;SDS011;4991;43.566;27.820;2023-07-31T13:00:40;5.57;;;5.07;;
9904;SDS011;4991;43.566;27.820;2023-07-31T13:03:06;5.47;;;4.85;;
9904;SDS011;4991;43.566;27.820;2023-07-31T13:05:32;7.45;;;5.05;;
9904;SDS011;4991;43.566;27.820;2023-07-31T13:07:57;6.53;;;5.65;;
9904;SDS011;4991;43.566;27.820;2023-07-31T13:10:23;6.18;;;5.57;;
9904;SDS011;4991;43.566;27.820;2023-07-31T13:12:50;5.47;;;4.97;;
9904;SDS011;4991;43.566;27.820;2023-07-31T13:15:16;8.25;;;5.75;;
9904;SDS011;4991;43.566;27.820;2023-07-31T13:17:41;6.57;;;4.95;;
9904;SDS011;4991;43.566;27.820;2023-07-31T13:20:07;5.38;;;4.88;;
9904;SDS011;4991;43.566;27.820;2023-07-31T13:22:33;5.65;;;5.15;;
9904;SDS011;4991;43.566;27.820;2023-07-31T13:24:59;6.22;;;5.07;;
9904;SDS011;4991;43.566;27.820;2023-07-31T13:27:25;7.50;;;5.72;;
9904;SDS011;4991;43.566;27.820;2023-07-31T13:29:51;5.72;;;5.13;;
9904;SDS011;4991;43.566;27.820;2023-07-31T13:32:17;5.40;;;4.90;;
9904;SDS011;4991;43.566;27.820;2023-07-31T13:34:44;5.68;;;5.05;;
9904;SDS011;4991;43.566;27.820;2023-07-31T13:37:10;5.18;;;4.78;;
9904;SDS011;4991;43.566;27.820;2023-07-31T13:39:36;5.72;;;5.22;;
9904;SDS011;4991;43.566;27.820;2023-07-31T13:42:02;5.35;;;4.95;;
9904;SDS011;4991;43.566;27.820;2023-07-31T13:44:28;5.80;;;5.30;;
9904;SDS011;4991;43.566;27.820;2023-07-31T13:46:54;6.13;;;5.63;;
9904;SDS011;4991;43.566;27.820;2023-07-31T13:49:20;5.88;;;5.28;;
9904;SDS011;4991;43.566;27.820;2023-07-31T13:51:45;6.70;;;5.85;;
9904;SDS011;4991;43.566;27.820;2023-07-31T13:54:11;5.70;;;5.13;;
9904;SDS011;4991;43.566;27.820;2023-07-31T13:56:37;7.90;;;5.70;;
9904;SDS011;4991;43.566;27.820;2023-07-31T13:59:03;8.75;;;5.57;;
9904;SDS011;4991;43.566;27.820;2023-07-31T14:01:30;5.38;;;4.88;;
9904;SDS011;4991;43.566;27.820;2023-07-31T14:03:56;5.65;;;4.93;;
9904;SDS011;4991;43.566;27.820;2023-07-31T14:06:21;5.25;;;4.05;;
9904;SDS011;4991;43.566;27.820;2023-07-31T14:08:47;5.13;;;4.63;;
9904;SDS011;4991;43.566;27.820;2023-07-31T14:11:12;5.10;;;4.70;;
9904;SDS011;4991;43.566;27.820;2023-07-31T14:13:38;6.07;;;5.15;;
9904;SDS011;4991;43.566;27.820;2023-07-31T14:16:04;5.65;;;5.15;;
9904;SDS011;4991;43.566;27.820;2023-07-31T14:18:29;5.78;;;5.18;;
9904;SDS011;4991;43.566;27.820;2023-07-31T14:20:55;4.43;;;4.03;;
9904;SDS011;4991;43.566;27.820;2023-07-31T14:23:21;5.25;;;4.10;;
9904;SDS011;4991;43.566;27.820;2023-07-31T14:25:47;4.97;;;4.47;;
9904;SDS011;4991;43.566;27.820;2023-07-31T14:28:12;4.63;;;4.22;;
9904;SDS011;4991;43.566;27.820;2023-07-31T14:30:38;4.28;;;3.88;;
9904;SDS011;4991;43.566;27.820;2023-07-31T14:33:04;4.63;;;4.20;;
9904;SDS011;4991;43.566;27.820;2023-07-31T14:35:29;5.25;;;4.32;;
9904;SDS011;4991;43.566;27.820;2023-07-31T14:37:55;4.80;;;3.92;;
9904;SDS011;4991;43.566;27.820;2023-07-31T14:40:21;4.88;;;4.47;;
9904;SDS011;4991;43.566;27.820;2023-07-31T14:42:46;4.82;;;4.38;;
9904;SDS011;4991;43.566;27.820;2023-07-31T14:45:12;4.80;;;4.10;;
9904;SDS011;4991;43.566;27.820;2023-07-31T14:47:38;4.70;;;4.30;;
9904;SDS011;4991;43.566;27.820;2023-07-31T14:50:03;5.60;;;5.05;;
9904;SDS011;4991;43.566;27.820;2023-07-31T14:52:29;8.50;;;4.60;;
9904;SDS011;4991;43.566;27.820;2023-07-31T14:54:55;5.50;;;5.00;;
9904;SDS011;4991;43.566;27.820;2023-07-31T14:57:21;4.82;;;4.43;;
9904;SDS011;4991;43.566;27.820;2023-07-31T14:59:47;5.30;;;4.80;;
9904;SDS011;4991;43.566;27.820;2023-07-31T15:02:13;5.03;;;4.63;;
9904;SDS011;4991;43.566;27.820;2023-07-31T15:04:39;6.70;;;5.97;;
9904;SDS011;4991;43.566;27.820;2023-07-31T15:07:05;5.13;;;4.63;;
9904;SDS011;4991;43.566;27.820;2023-07-31T15:09:31;5.35;;;4.85;;
9904;SDS011;4991;43.566;27.820;2023-07-31T15:11:57;6.15;;;5.18;;
9904;SDS011;4991;43.566;27.820;2023-07-31T15:14:23;4.70;;;4.30;;
9904;SDS011;4991;43.566;27.820;2023-07-31T15:16:49;5.75;;;5.25;;
9904;SDS011;4991;43.566;27.820;2023-07-31T15:19:15;5.07;;;4.63;;
9904;SDS011;4991;43.566;27.820;2023-07-31T15:21:41;5.22;;;4.72;;